Terminal Aerodrome Forecast
Issued by NWS King Salmon, AK

Home | Current Version | Previous Version | Text Only | Print | Product List | Glossary On
Versions: 1 2 3 4 5 6 7 8 9 10 11 12 13 14 15 16 17 18 19 20 21 22 23 24 25 26 27 28 29 30 31 32 33 34
000
FTAK31 PANC 232001 AAA
TAFAKN
TAF AMD
PAKN 232001Z 2320/2418 13006KT P6SM -SHRASN BKN025
      TEMPO 2320/2322 2SM -SHRASN BR SCT006 BKN010
     FM232200 16015G23KT P6SM VCSH BKN035 BKN050
     FM240500 15018G27KT 6SM -RA BKN020 OVC035
     FM240900 14022G35KT 5SM -RA BR SCT007 OVC015=

USA.gov is the U.S. government's official web portal to all federal, state and local government web resources and services.